sensor_id;sensor_type;location;lat;lon;timestamp;temperature;humidity
44851;DHT22;30583;48.714;9.386;2023-03-11T00:00:23;4.30;59.60
44851;DHT22;30583;48.714;9.386;2023-03-11T00:02:51;4.10;59.70
44851;DHT22;30583;48.714;9.386;2023-03-11T00:05:22;4.30;58.60
44851;DHT22;30583;48.714;9.386;2023-03-11T00:07:49;4.20;58.40
44851;DHT22;30583;48.714;9.386;2023-03-11T00:10:19;4.50;58.50
44851;DHT22;30583;48.714;9.386;2023-03-11T00:12:45;4.40;57.90
44851;DHT22;30583;48.714;9.386;2023-03-11T00:15:11;4.20;58.20
44851;DHT22;30583;48.714;9.386;2023-03-11T00:17:37;4.10;58.50
44851;DHT22;30583;48.714;9.386;2023-03-11T00:20:04;4.50;57.90
44851;DHT22;30583;48.714;9.386;2023-03-11T00:22:31;4.30;57.90
44851;DHT22;30583;48.714;9.386;2023-03-11T00:24:57;4.30;58.40
44851;DHT22;30583;48.714;9.386;2023-03-11T00:27:22;4.20;58.20
44851;DHT22;30583;48.714;9.386;2023-03-11T00:29:48;4.10;59.00
44851;DHT22;30583;48.714;9.386;2023-03-11T00:32:13;4.20;58.90
44851;DHT22;30583;48.714;9.386;2023-03-11T00:34:39;4.40;58.20
44851;DHT22;30583;48.714;9.386;2023-03-11T00:37:05;4.40;59.00
44851;DHT22;30583;48.714;9.386;2023-03-11T00:39:30;4.60;58.10
44851;DHT22;30583;48.714;9.386;2023-03-11T00:41:56;4.70;57.60
44851;DHT22;30583;48.714;9.386;2023-03-11T00:44:22;4.30;58.80
44851;DHT22;30583;48.714;9.386;2023-03-11T00:46:47;4.20;59.90
44851;DHT22;30583;48.714;9.386;2023-03-11T00:49:13;4.50;59.50
44851;DHT22;30583;48.714;9.386;2023-03-11T00:51:39;4.40;59.50
44851;DHT22;30583;48.714;9.386;2023-03-11T00:54:04;4.70;58.80
44851;DHT22;30583;48.714;9.386;2023-03-11T00:56:30;4.40;60.10
44851;DHT22;30583;48.714;9.386;2023-03-11T00:58:55;4.20;60.60
44851;DHT22;30583;48.714;9.386;2023-03-11T01:01:21;4.40;60.20
44851;DHT22;30583;48.714;9.386;2023-03-11T01:03:47;4.30;60.50
44851;DHT22;30583;48.714;9.386;2023-03-11T01:06:13;4.30;60.20
44851;DHT22;30583;48.714;9.386;2023-03-11T01:08:39;4.20;60.80
44851;DHT22;30583;48.714;9.386;2023-03-11T01:11:05;4.10;60.90
44851;DHT22;30583;48.714;9.386;2023-03-11T01:13:31;4.20;61.00
44851;DHT22;30583;48.714;9.386;2023-03-11T01:15:57;4.20;61.10
44851;DHT22;30583;48.714;9.386;2023-03-11T01:18:24;4.40;61.30
44851;DHT22;30583;48.714;9.386;2023-03-11T01:20:50;4.20;61.10
44851;DHT22;30583;48.714;9.386;2023-03-11T01:23:19;4.00;62.20
44851;DHT22;30583;48.714;9.386;2023-03-11T01:25:45;4.30;61.70
44851;DHT22;30583;48.714;9.386;2023-03-11T01:28:11;4.30;61.00
44851;DHT22;30583;48.714;9.386;2023-03-11T01:30:39;4.40;61.60
44851;DHT22;30583;48.714;9.386;2023-03-11T01:33:06;4.20;62.10
44851;DHT22;30583;48.714;9.386;2023-03-11T01:35:32;4.40;61.90
44851;DHT22;30583;48.714;9.386;2023-03-11T01:37:59;4.40;62.10
44851;DHT22;30583;48.714;9.386;2023-03-11T01:40:37;4.20;62.00
44851;DHT22;30583;48.714;9.386;2023-03-11T01:43:05;4.20;63.20
44851;DHT22;30583;48.714;9.386;2023-03-11T01:45:39;4.60;62.10
44851;DHT22;30583;48.714;9.386;2023-03-11T01:48:07;4.40;62.10
44851;DHT22;30583;48.714;9.386;2023-03-11T01:50:40;4.10;61.60
44851;DHT22;30583;48.714;9.386;2023-03-11T01:53:07;4.00;60.70
44851;DHT22;30583;48.714;9.386;2023-03-11T01:55:34;3.90;60.10
44851;DHT22;30583;48.714;9.386;2023-03-11T01:58:02;3.70;60.50
44851;DHT22;30583;48.714;9.386;2023-03-11T02:00:29;3.90;60.30
44851;DHT22;30583;48.714;9.386;2023-03-11T02:02:57;4.20;59.90
44851;DHT22;30583;48.714;9.386;2023-03-11T02:05:24;4.30;59.80
44851;DHT22;30583;48.714;9.386;2023-03-11T02:07:51;4.00;60.40
44851;DHT22;30583;48.714;9.386;2023-03-11T02:10:19;3.90;60.50
44851;DHT22;30583;48.714;9.386;2023-03-11T02:12:46;4.00;60.50
44851;DHT22;30583;48.714;9.386;2023-03-11T02:15:13;4.10;59.40
44851;DHT22;30583;48.714;9.386;2023-03-11T02:17:40;4.00;59.80
44851;DHT22;30583;48.714;9.386;2023-03-11T02:20:19;4.00;60.10
44851;DHT22;30583;48.714;9.386;2023-03-11T02:22:48;4.00;59.70
44851;DHT22;30583;48.714;9.386;2023-03-11T02:27:49;3.70;60.70
44851;DHT22;30583;48.714;9.386;2023-03-11T02:30:17;3.70;60.30
44851;DHT22;30583;48.714;9.386;2023-03-11T02:32:45;3.80;60.90
44851;DHT22;30583;48.714;9.386;2023-03-11T02:35:14;4.10;60.10
44851;DHT22;30583;48.714;9.386;2023-03-11T02:37:44;4.00;59.80
44851;DHT22;30583;48.714;9.386;2023-03-11T02:42:59;3.70;61.10
44851;DHT22;30583;48.714;9.386;2023-03-11T02:45:26;4.00;60.70
44851;DHT22;30583;48.714;9.386;2023-03-11T02:47:56;4.10;60.90
44851;DHT22;30583;48.714;9.386;2023-03-11T02:50:23;4.30;59.70
44851;DHT22;30583;48.714;9.386;2023-03-11T02:52:52;4.30;60.10
44851;DHT22;30583;48.714;9.386;2023-03-11T02:55:18;3.70;59.60
44851;DHT22;30583;48.714;9.386;2023-03-11T02:57:46;3.70;60.00
44851;DHT22;30583;48.714;9.386;2023-03-11T03:00:13;3.40;60.30
44851;DHT22;30583;48.714;9.386;2023-03-11T03:02:42;3.40;59.50
44851;DHT22;30583;48.714;9.386;2023-03-11T03:05:09;3.30;60.30
44851;DHT22;30583;48.714;9.386;2023-03-11T03:07:35;3.20;59.70
44851;DHT22;30583;48.714;9.386;2023-03-11T03:10:02;3.10;60.50
44851;DHT22;30583;48.714;9.386;2023-03-11T03:12:27;3.50;59.50
44851;DHT22;30583;48.714;9.386;2023-03-11T03:14:53;3.20;58.80
44851;DHT22;30583;48.714;9.386;2023-03-11T03:17:19;3.20;59.10
44851;DHT22;30583;48.714;9.386;2023-03-11T03:19:44;3.40;58.60
44851;DHT22;30583;48.714;9.386;2023-03-11T03:22:10;3.50;58.40
44851;DHT22;30583;48.714;9.386;2023-03-11T03:24:35;3.10;58.60
44851;DHT22;30583;48.714;9.386;2023-03-11T03:27:01;3.10;59.50
44851;DHT22;30583;48.714;9.386;2023-03-11T03:29:27;2.90;59.80
44851;DHT22;30583;48.714;9.386;2023-03-11T03:31:53;3.40;58.90
44851;DHT22;30583;48.714;9.386;2023-03-11T03:34:19;3.50;58.50
44851;DHT22;30583;48.714;9.386;2023-03-11T03:36:44;3.60;58.30
44851;DHT22;30583;48.714;9.386;2023-03-11T03:39:10;3.40;58.90
44851;DHT22;30583;48.714;9.386;2023-03-11T03:41:36;3.30;58.40
44851;DHT22;30583;48.714;9.386;2023-03-11T03:44:01;3.10;58.30
44851;DHT22;30583;48.714;9.386;2023-03-11T03:46:27;2.80;58.90
44851;DHT22;30583;48.714;9.386;2023-03-11T03:48:53;3.10;59.40
44851;DHT22;30583;48.714;9.386;2023-03-11T03:51:18;3.00;59.10
44851;DHT22;30583;48.714;9.386;2023-03-11T03:53:44;2.90;59.70
44851;DHT22;30583;48.714;9.386;2023-03-11T03:56:14;3.30;59.20
44851;DHT22;30583;48.714;9.386;2023-03-11T03:58:40;3.40;58.60
44851;DHT22;30583;48.714;9.386;2023-03-11T04:01:06;3.30;58.30
44851;DHT22;30583;48.714;9.386;2023-03-11T04:03:33;3.20;58.30
44851;DHT22;30583;48.714;9.386;2023-03-11T04:06:19;2.80;59.20
44851;DHT22;30583;48.714;9.386;2023-03-11T04:08:45;3.10;59.30
44851;DHT22;30583;48.714;9.386;2023-03-11T04:11:11;3.00;59.30
44851;DHT22;30583;48.714;9.386;2023-03-11T04:13:37;3.20;58.80
44851;DHT22;30583;48.714;9.386;2023-03-11T04:16:06;3.00;59.70
44851;DHT22;30583;48.714;9.386;2023-03-11T04:18:33;3.20;59.10
44851;DHT22;30583;48.714;9.386;2023-03-11T04:20:58;2.50;59.90
44851;DHT22;30583;48.714;9.386;2023-03-11T04:23:24;2.90;60.10
44851;DHT22;30583;48.714;9.386;2023-03-11T04:25:49;3.20;58.90
44851;DHT22;30583;48.714;9.386;2023-03-11T04:28:15;3.40;57.70
44851;DHT22;30583;48.714;9.386;2023-03-11T04:30:41;3.10;58.80
44851;DHT22;30583;48.714;9.386;2023-03-11T04:33:06;3.30;57.80
44851;DHT22;30583;48.714;9.386;2023-03-11T04:35:32;2.80;58.90
44851;DHT22;30583;48.714;9.386;2023-03-11T04:37:59;2.70;59.60
44851;DHT22;30583;48.714;9.386;2023-03-11T04:40:25;2.90;59.90
44851;DHT22;30583;48.714;9.386;2023-03-11T04:42:52;2.70;60.20
44851;DHT22;30583;48.714;9.386;2023-03-11T04:45:18;2.80;59.90
44851;DHT22;30583;48.714;9.386;2023-03-11T04:47:47;2.70;60.10
44851;DHT22;30583;48.714;9.386;2023-03-11T04:50:13;2.60;60.60
44851;DHT22;30583;48.714;9.386;2023-03-11T04:52:38;2.70;59.90
44851;DHT22;30583;48.714;9.386;2023-03-11T04:55:04;2.40;60.90
44851;DHT22;30583;48.714;9.386;2023-03-11T04:57:30;2.50;60.90
44851;DHT22;30583;48.714;9.386;2023-03-11T04:59:56;2.70;60.00
44851;DHT22;30583;48.714;9.386;2023-03-11T05:02:21;2.70;59.90
44851;DHT22;30583;48.714;9.386;2023-03-11T05:04:47;2.70;60.50
44851;DHT22;30583;48.714;9.386;2023-03-11T05:07:12;3.00;59.90
44851;DHT22;30583;48.714;9.386;2023-03-11T05:09:38;2.80;60.40
44851;DHT22;30583;48.714;9.386;2023-03-11T05:12:05;3.00;60.30
44851;DHT22;30583;48.714;9.386;2023-03-11T05:14:31;2.60;60.70
44851;DHT22;30583;48.714;9.386;2023-03-11T05:16:56;2.70;61.10
44851;DHT22;30583;48.714;9.386;2023-03-11T05:19:22;2.80;60.90
44851;DHT22;30583;48.714;9.386;2023-03-11T05:21:57;2.80;60.80
44851;DHT22;30583;48.714;9.386;2023-03-11T05:24:23;3.00;60.40
44851;DHT22;30583;48.714;9.386;2023-03-11T05:26:50;2.70;60.60
44851;DHT22;30583;48.714;9.386;2023-03-11T05:29:17;2.70;60.80
44851;DHT22;30583;48.714;9.386;2023-03-11T05:31:43;2.70;61.20
44851;DHT22;30583;48.714;9.386;2023-03-11T05:34:08;2.60;61.30
44851;DHT22;30583;48.714;9.386;2023-03-11T05:36:34;2.70;61.60
44851;DHT22;30583;48.714;9.386;2023-03-11T05:38:59;2.50;61.30
44851;DHT22;30583;48.714;9.386;2023-03-11T05:41:25;2.50;61.70
44851;DHT22;30583;48.714;9.386;2023-03-11T05:43:50;2.30;62.20
44851;DHT22;30583;48.714;9.386;2023-03-11T05:46:16;2.40;61.80
44851;DHT22;30583;48.714;9.386;2023-03-11T05:48:42;2.40;62.00
44851;DHT22;30583;48.714;9.386;2023-03-11T05:51:09;2.40;62.40
44851;DHT22;30583;48.714;9.386;2023-03-11T05:53:35;2.40;62.20
44851;DHT22;30583;48.714;9.386;2023-03-11T05:56:01;2.20;62.40
44851;DHT22;30583;48.714;9.386;2023-03-11T05:58:27;2.40;62.60
44851;DHT22;30583;48.714;9.386;2023-03-11T06:00:53;2.80;61.70
44851;DHT22;30583;48.714;9.386;2023-03-11T06:03:19;2.50;61.90
44851;DHT22;30583;48.714;9.386;2023-03-11T06:05:45;2.40;62.10
44851;DHT22;30583;48.714;9.386;2023-03-11T06:08:12;2.60;61.90
44851;DHT22;30583;48.714;9.386;2023-03-11T06:10:37;2.70;61.70
44851;DHT22;30583;48.714;9.386;2023-03-11T06:13:03;2.90;61.40
44851;DHT22;30583;48.714;9.386;2023-03-11T06:15:28;2.90;61.40
44851;DHT22;30583;48.714;9.386;2023-03-11T06:17:54;2.90;61.50
44851;DHT22;30583;48.714;9.386;2023-03-11T06:20:20;2.80;61.40
44851;DHT22;30583;48.714;9.386;2023-03-11T06:22:49;2.80;61.60
44851;DHT22;30583;48.714;9.386;2023-03-11T06:25:15;2.60;62.50
44851;DHT22;30583;48.714;9.386;2023-03-11T06:27:40;2.70;62.60
44851;DHT22;30583;48.714;9.386;2023-03-11T06:30:06;2.70;63.00
44851;DHT22;30583;48.714;9.386;2023-03-11T06:32:32;2.90;62.20
44851;DHT22;30583;48.714;9.386;2023-03-11T06:34:59;3.00;62.10
44851;DHT22;30583;48.714;9.386;2023-03-11T06:37:25;3.20;62.20
44851;DHT22;30583;48.714;9.386;2023-03-11T06:39:51;3.20;62.00
44851;DHT22;30583;48.714;9.386;2023-03-11T06:42:17;2.90;62.00
44851;DHT22;30583;48.714;9.386;2023-03-11T06:44:43;3.10;62.30
44851;DHT22;30583;48.714;9.386;2023-03-11T06:47:11;3.20;61.90
44851;DHT22;30583;48.714;9.386;2023-03-11T06:49:37;3.30;61.30
44851;DHT22;30583;48.714;9.386;2023-03-11T06:52:05;3.40;60.40
44851;DHT22;30583;48.714;9.386;2023-03-11T06:54:31;3.30;60.70
44851;DHT22;30583;48.714;9.386;2023-03-11T06:56:56;3.40;60.40
44851;DHT22;30583;48.714;9.386;2023-03-11T06:59:22;3.40;60.40
44851;DHT22;30583;48.714;9.386;2023-03-11T07:01:47;3.50;60.10
44851;DHT22;30583;48.714;9.386;2023-03-11T07:04:13;3.50;59.90
44851;DHT22;30583;48.714;9.386;2023-03-11T07:06:40;3.60;59.70
44851;DHT22;30583;48.714;9.386;2023-03-11T07:09:06;3.60;59.70
44851;DHT22;30583;48.714;9.386;2023-03-11T07:11:32;3.40;60.20
44851;DHT22;30583;48.714;9.386;2023-03-11T07:13:57;3.40;60.00
44851;DHT22;30583;48.714;9.386;2023-03-11T07:16:25;3.40;59.90
44851;DHT22;30583;48.714;9.386;2023-03-11T07:18:53;3.20;59.40
44851;DHT22;30583;48.714;9.386;2023-03-11T07:21:20;3.40;59.30
44851;DHT22;30583;48.714;9.386;2023-03-11T07:23:50;3.60;58.20
44851;DHT22;30583;48.714;9.386;2023-03-11T07:26:16;3.50;58.70
44851;DHT22;30583;48.714;9.386;2023-03-11T07:28:42;3.20;59.30
44851;DHT22;30583;48.714;9.386;2023-03-11T07:31:10;3.20;58.90
44851;DHT22;30583;48.714;9.386;2023-03-11T07:33:36;3.40;58.90
44851;DHT22;30583;48.714;9.386;2023-03-11T07:36:18;3.40;58.60
44851;DHT22;30583;48.714;9.386;2023-03-11T07:38:45;3.30;58.50
44851;DHT22;30583;48.714;9.386;2023-03-11T07:41:11;3.10;58.70
44851;DHT22;30583;48.714;9.386;2023-03-11T07:43:38;3.30;59.30
44851;DHT22;30583;48.714;9.386;2023-03-11T07:46:10;3.30;59.00
44851;DHT22;30583;48.714;9.386;2023-03-11T07:48:38;3.30;58.70
44851;DHT22;30583;48.714;9.386;2023-03-11T07:51:06;3.50;58.60
44851;DHT22;30583;48.714;9.386;2023-03-11T07:53:32;3.40;58.30
44851;DHT22;30583;48.714;9.386;2023-03-11T07:55:58;3.60;58.90
44851;DHT22;30583;48.714;9.386;2023-03-11T07:58:25;3.40;58.50
44851;DHT22;30583;48.714;9.386;2023-03-11T08:00:51;3.50;58.90
44851;DHT22;30583;48.714;9.386;2023-03-11T08:03:17;3.60;58.20
44851;DHT22;30583;48.714;9.386;2023-03-11T08:05:43;3.70;57.90
44851;DHT22;30583;48.714;9.386;2023-03-11T08:08:08;3.80;58.00
44851;DHT22;30583;48.714;9.386;2023-03-11T08:10:38;4.00;57.60
44851;DHT22;30583;48.714;9.386;2023-03-11T08:13:04;3.90;57.50
44851;DHT22;30583;48.714;9.386;2023-03-11T08:15:30;4.40;64.80
44851;DHT22;30583;48.714;9.386;2023-03-11T08:17:56;4.10;57.10
44851;DHT22;30583;48.714;9.386;2023-03-11T08:20:22;3.80;57.00
44851;DHT22;30583;48.714;9.386;2023-03-11T08:22:47;3.70;58.80
44851;DHT22;30583;48.714;9.386;2023-03-11T08:25:13;4.10;56.70
44851;DHT22;30583;48.714;9.386;2023-03-11T08:27:39;4.20;56.10
44851;DHT22;30583;48.714;9.386;2023-03-11T08:30:06;4.40;56.80
44851;DHT22;30583;48.714;9.386;2023-03-11T08:32:32;4.30;56.30
44851;DHT22;30583;48.714;9.386;2023-03-11T08:34:58;4.30;56.00
44851;DHT22;30583;48.714;9.386;2023-03-11T08:37:24;4.40;56.10
44851;DHT22;30583;48.714;9.386;2023-03-11T08:39:49;4.50;55.60
44851;DHT22;30583;48.714;9.386;2023-03-11T08:42:16;4.20;55.20
44851;DHT22;30583;48.714;9.386;2023-03-11T08:44:42;4.20;55.50
44851;DHT22;30583;48.714;9.386;2023-03-11T08:47:08;4.30;55.80
44851;DHT22;30583;48.714;9.386;2023-03-11T08:49:34;4.30;55.70
44851;DHT22;30583;48.714;9.386;2023-03-11T08:52:01;4.40;56.00
44851;DHT22;30583;48.714;9.386;2023-03-11T08:54:27;4.70;55.90
44851;DHT22;30583;48.714;9.386;2023-03-11T08:56:53;4.30;55.40
44851;DHT22;30583;48.714;9.386;2023-03-11T08:59:19;4.50;56.10
44851;DHT22;30583;48.714;9.386;2023-03-11T09:01:44;4.60;55.60
44851;DHT22;30583;48.714;9.386;2023-03-11T09:04:11;4.80;55.20
44851;DHT22;30583;48.714;9.386;2023-03-11T09:06:41;4.70;54.50
44851;DHT22;30583;48.714;9.386;2023-03-11T09:09:07;4.70;54.50
44851;DHT22;30583;48.714;9.386;2023-03-11T09:11:32;4.70;55.60
44851;DHT22;30583;48.714;9.386;2023-03-11T09:14:01;5.20;55.00
44851;DHT22;30583;48.714;9.386;2023-03-11T09:16:27;5.30;54.10
44851;DHT22;30583;48.714;9.386;2023-03-11T09:18:53;5.50;52.90
44851;DHT22;30583;48.714;9.386;2023-03-11T09:21:18;5.30;52.90
44851;DHT22;30583;48.714;9.386;2023-03-11T09:23:44;5.40;53.00
44851;DHT22;30583;48.714;9.386;2023-03-11T09:26:11;5.10;53.20
44851;DHT22;30583;48.714;9.386;2023-03-11T09:28:36;5.00;54.10
44851;DHT22;30583;48.714;9.386;2023-03-11T09:31:02;5.00;53.90
44851;DHT22;30583;48.714;9.386;2023-03-11T09:33:27;5.20;53.10
44851;DHT22;30583;48.714;9.386;2023-03-11T09:35:53;5.60;53.10
44851;DHT22;30583;48.714;9.386;2023-03-11T09:38:18;6.20;52.40
44851;DHT22;30583;48.714;9.386;2023-03-11T09:40:59;5.90;50.70
44851;DHT22;30583;48.714;9.386;2023-03-11T09:49:22;5.40;50.90
44851;DHT22;30583;48.714;9.386;2023-03-11T09:54:37;5.40;52.20
44851;DHT22;30583;48.714;9.386;2023-03-11T09:57:04;5.30;51.50
44851;DHT22;30583;48.714;9.386;2023-03-11T09:59:31;6.10;52.00
44851;DHT22;30583;48.714;9.386;2023-03-11T10:01:58;7.00;50.50
44851;DHT22;30583;48.714;9.386;2023-03-11T10:04:31;7.80;49.90
44851;DHT22;30583;48.714;9.386;2023-03-11T10:07:00;7.70;48.00
44851;DHT22;30583;48.714;9.386;2023-03-11T10:09:48;8.30;48.50
44851;DHT22;30583;48.714;9.386;2023-03-11T10:26:44;6.10;50.10
44851;DHT22;30583;48.714;9.386;2023-03-11T10:29:22;6.20;50.30
44851;DHT22;30583;48.714;9.386;2023-03-11T10:32:22;6.40;49.40
44851;DHT22;30583;48.714;9.386;2023-03-11T10:35:04;7.10;48.50
44851;DHT22;30583;48.714;9.386;2023-03-11T10:37:34;7.20;46.60
44851;DHT22;30583;48.714;9.386;2023-03-11T10:40:21;7.70;48.10
44851;DHT22;30583;48.714;9.386;2023-03-11T10:42:50;8.20;47.10
44851;DHT22;30583;48.714;9.386;2023-03-11T10:45:16;7.80;46.30
44851;DHT22;30583;48.714;9.386;2023-03-11T10:47:44;7.40;47.60
44851;DHT22;30583;48.714;9.386;2023-03-11T10:50:17;7.30;45.80
44851;DHT22;30583;48.714;9.386;2023-03-11T10:53:28;7.60;46.20
44851;DHT22;30583;48.714;9.386;2023-03-11T10:55:35;7.60;45.70
44851;DHT22;30583;48.714;9.386;2023-03-11T10:58:16;7.80;45.10
44851;DHT22;30583;48.714;9.386;2023-03-11T11:00:42;7.70;44.90
44851;DHT22;30583;48.714;9.386;2023-03-11T11:03:23;7.10;46.70
44851;DHT22;30583;48.714;9.386;2023-03-11T11:06:20;7.00;47.60
44851;DHT22;30583;48.714;9.386;2023-03-11T11:08:45;6.90;46.20
44851;DHT22;30583;48.714;9.386;2023-03-11T11:11:22;7.10;45.30
44851;DHT22;30583;48.714;9.386;2023-03-11T11:13:56;6.80;45.80
44851;DHT22;30583;48.714;9.386;2023-03-11T11:16:22;6.90;46.40
44851;DHT22;30583;48.714;9.386;2023-03-11T11:21:37;7.10;45.60
44851;DHT22;30583;48.714;9.386;2023-03-11T11:27:02;7.00;42.60
44851;DHT22;30583;48.714;9.386;2023-03-11T11:29:28;7.10;42.80
44851;DHT22;30583;48.714;9.386;2023-03-11T11:34:41;6.90;42.30
44851;DHT22;30583;48.714;9.386;2023-03-11T11:37:13;7.30;43.30
44851;DHT22;30583;48.714;9.386;2023-03-11T11:40:06;8.90;42.90
44851;DHT22;30583;48.714;9.386;2023-03-11T11:42:40;8.40;43.20
44851;DHT22;30583;48.714;9.386;2023-03-11T11:45:21;8.30;42.50
44851;DHT22;30583;48.714;9.386;2023-03-11T11:47:51;7.60;42.20
44851;DHT22;30583;48.714;9.386;2023-03-11T11:50:36;7.50;42.50
44851;DHT22;30583;48.714;9.386;2023-03-11T11:53:26;7.50;43.20
44851;DHT22;30583;48.714;9.386;2023-03-11T11:55:53;7.70;44.50
44851;DHT22;30583;48.714;9.386;2023-03-11T11:58:20;7.40;44.20
44851;DHT22;30583;48.714;9.386;2023-03-11T12:12:18;7.00;44.40
44851;DHT22;30583;48.714;9.386;2023-03-11T12:14:49;7.20;43.30
44851;DHT22;30583;48.714;9.386;2023-03-11T12:17:18;6.90;43.10
44851;DHT22;30583;48.714;9.386;2023-03-11T12:20:13;6.80;42.50
44851;DHT22;30583;48.714;9.386;2023-03-11T12:28:02;7.30;42.00
44851;DHT22;30583;48.714;9.386;2023-03-11T12:30:37;7.20;42.20
44851;DHT22;30583;48.714;9.386;2023-03-11T12:33:12;7.70;42.70
44851;DHT22;30583;48.714;9.386;2023-03-11T12:35:47;8.70;41.60
44851;DHT22;30583;48.714;9.386;2023-03-11T12:38:26;8.60;39.80
44851;DHT22;30583;48.714;9.386;2023-03-11T12:41:01;8.90;38.40
44851;DHT22;30583;48.714;9.386;2023-03-11T12:44:19;9.00;39.90
44851;DHT22;30583;48.714;9.386;2023-03-11T12:46:14;9.80;39.40
44851;DHT22;30583;48.714;9.386;2023-03-11T12:48:48;11.00;38.20
44851;DHT22;30583;48.714;9.386;2023-03-11T12:53:55;11.10;37.50
44851;DHT22;30583;48.714;9.386;2023-03-11T12:56:33;11.80;36.20
44851;DHT22;30583;48.714;9.386;2023-03-11T13:02:28;11.80;35.90
44851;DHT22;30583;48.714;9.386;2023-03-11T13:04:57;12.20;35.70
44851;DHT22;30583;48.714;9.386;2023-03-11T13:07:36;12.20;35.90
44851;DHT22;30583;48.714;9.386;2023-03-11T13:10:12;12.20;34.80
44851;DHT22;30583;48.714;9.386;2023-03-11T13:12:44;12.60;34.10
44851;DHT22;30583;48.714;9.386;2023-03-11T13:18:13;13.20;33.20
44851;DHT22;30583;48.714;9.386;2023-03-11T13:28:30;12.20;35.30
44851;DHT22;30583;48.714;9.386;2023-03-11T13:31:39;12.30;35.60
44851;DHT22;30583;48.714;9.386;2023-03-11T13:34:11;12.70;34.20
44851;DHT22;30583;48.714;9.386;2023-03-11T13:36:48;12.20;35.10
44851;DHT22;30583;48.714;9.386;2023-03-11T13:44:52;11.50;34.00
44851;DHT22;30583;48.714;9.386;2023-03-11T13:47:19;11.00;34.10
44851;DHT22;30583;48.714;9.386;2023-03-11T13:52:32;11.00;35.70
44851;DHT22;30583;48.714;9.386;2023-03-11T13:55:05;10.90;36.10
44851;DHT22;30583;48.714;9.386;2023-03-11T13:57:33;10.30;36.00
44851;DHT22;30583;48.714;9.386;2023-03-11T14:00:14;10.00;35.90
44851;DHT22;30583;48.714;9.386;2023-03-11T14:02:48;9.90;36.30
44851;DHT22;30583;48.714;9.386;2023-03-11T14:05:29;9.90;35.50
44851;DHT22;30583;48.714;9.386;2023-03-11T14:08:10;10.40;35.40
44851;DHT22;30583;48.714;9.386;2023-03-11T14:10:36;11.40;35.40
44851;DHT22;30583;48.714;9.386;2023-03-11T14:16:01;11.90;34.60
44851;DHT22;30583;48.714;9.386;2023-03-11T14:18:36;12.20;32.50
44851;DHT22;30583;48.714;9.386;2023-03-11T14:21:10;11.40;33.70
44851;DHT22;30583;48.714;9.386;2023-03-11T14:23:51;11.10;33.90
44851;DHT22;30583;48.714;9.386;2023-03-11T14:26:17;11.90;33.40
44851;DHT22;30583;48.714;9.386;2023-03-11T14:29:29;12.90;32.60
44851;DHT22;30583;48.714;9.386;2023-03-11T14:31:40;13.00;32.40
44851;DHT22;30583;48.714;9.386;2023-03-11T14:34:17;12.70;32.30
44851;DHT22;30583;48.714;9.386;2023-03-11T14:36:51;12.10;32.60
44851;DHT22;30583;48.714;9.386;2023-03-11T14:39:33;12.30;32.80
44851;DHT22;30583;48.714;9.386;2023-03-11T14:44:48;11.80;33.70
44851;DHT22;30583;48.714;9.386;2023-03-11T14:47:39;11.10;35.00
44851;DHT22;30583;48.714;9.386;2023-03-11T14:50:10;11.20;34.70
44851;DHT22;30583;48.714;9.386;2023-03-11T14:52:44;10.80;34.00
44851;DHT22;30583;48.714;9.386;2023-03-11T14:55:38;10.20;34.80
44851;DHT22;30583;48.714;9.386;2023-03-11T15:00:49;9.90;35.10
44851;DHT22;30583;48.714;9.386;2023-03-11T15:03:28;9.40;35.80
44851;DHT22;30583;48.714;9.386;2023-03-11T15:05:59;10.20;35.50
44851;DHT22;30583;48.714;9.386;2023-03-11T15:08:35;10.70;34.60
44851;DHT22;30583;48.714;9.386;2023-03-11T15:13:36;10.50;34.80
44851;DHT22;30583;48.714;9.386;2023-03-11T15:16:04;10.60;34.80
44851;DHT22;30583;48.714;9.386;2023-03-11T15:18:35;10.70;36.00
44851;DHT22;30583;48.714;9.386;2023-03-11T15:23:29;9.70;37.00
44851;DHT22;30583;48.714;9.386;2023-03-11T15:25:56;10.20;37.20
44851;DHT22;30583;48.714;9.386;2023-03-11T15:28:23;9.70;38.40
44851;DHT22;30583;48.714;9.386;2023-03-11T15:33:40;9.50;39.10
44851;DHT22;30583;48.714;9.386;2023-03-11T15:41:38;9.40;39.50
44851;DHT22;30583;48.714;9.386;2023-03-11T15:44:04;9.40;40.20
44851;DHT22;30583;48.714;9.386;2023-03-11T15:46:33;9.10;40.40
44851;DHT22;30583;48.714;9.386;2023-03-11T15:48:58;9.20;40.80
44851;DHT22;30583;48.714;9.386;2023-03-11T15:51:24;9.30;39.90
44851;DHT22;30583;48.714;9.386;2023-03-11T15:53:49;9.10;40.00
44851;DHT22;30583;48.714;9.386;2023-03-11T15:56:21;9.00;40.70
44851;DHT22;30583;48.714;9.386;2023-03-11T15:58:48;9.00;40.60
44851;DHT22;30583;48.714;9.386;2023-03-11T16:01:14;9.10;40.50
44851;DHT22;30583;48.714;9.386;2023-03-11T16:03:39;8.90;40.80
44851;DHT22;30583;48.714;9.386;2023-03-11T16:06:05;9.00;40.80
44851;DHT22;30583;48.714;9.386;2023-03-11T16:08:30;9.00;41.20
44851;DHT22;30583;48.714;9.386;2023-03-11T16:10:56;8.40;42.00
44851;DHT22;30583;48.714;9.386;2023-03-11T16:13:22;8.60;41.90
44851;DHT22;30583;48.714;9.386;2023-03-11T16:15:47;8.30;41.90
44851;DHT22;30583;48.714;9.386;2023-03-11T16:18:13;8.40;41.80
44851;DHT22;30583;48.714;9.386;2023-03-11T16:20:45;8.20;42.60
44851;DHT22;30583;48.714;9.386;2023-03-11T16:23:20;8.00;42.60
44851;DHT22;30583;48.714;9.386;2023-03-11T16:25:47;8.20;42.80
44851;DHT22;30583;48.714;9.386;2023-03-11T16:28:14;7.90;43.60
44851;DHT22;30583;48.714;9.386;2023-03-11T16:30:40;8.30;43.00
44851;DHT22;30583;48.714;9.386;2023-03-11T16:33:05;8.10;43.20
44851;DHT22;30583;48.714;9.386;2023-03-11T16:35:31;8.10;42.90
44851;DHT22;30583;48.714;9.386;2023-03-11T16:37:57;8.00;43.60
44851;DHT22;30583;48.714;9.386;2023-03-11T16:40:24;8.20;43.70
44851;DHT22;30583;48.714;9.386;2023-03-11T16:42:55;8.30;43.00
44851;DHT22;30583;48.714;9.386;2023-03-11T16:45:22;8.00;43.00
44851;DHT22;30583;48.714;9.386;2023-03-11T16:47:47;8.10;43.50
44851;DHT22;30583;48.714;9.386;2023-03-11T16:50:13;8.10;43.40
44851;DHT22;30583;48.714;9.386;2023-03-11T16:52:38;8.00;43.80
44851;DHT22;30583;48.714;9.386;2023-03-11T16:55:04;8.10;43.60
44851;DHT22;30583;48.714;9.386;2023-03-11T16:57:30;8.00;44.00
44851;DHT22;30583;48.714;9.386;2023-03-11T16:59:56;7.90;44.70
44851;DHT22;30583;48.714;9.386;2023-03-11T17:02:22;7.70;44.40
44851;DHT22;30583;48.714;9.386;2023-03-11T17:04:48;7.70;44.40
44851;DHT22;30583;48.714;9.386;2023-03-11T17:07:13;7.70;45.30
44851;DHT22;30583;48.714;9.386;2023-03-11T17:09:39;7.80;46.10
44851;DHT22;30583;48.714;9.386;2023-03-11T17:12:05;7.90;46.30
44851;DHT22;30583;48.714;9.386;2023-03-11T17:14:30;8.00;45.30
44851;DHT22;30583;48.714;9.386;2023-03-11T17:16:57;7.90;44.70
44851;DHT22;30583;48.714;9.386;2023-03-11T17:19:22;7.90;45.70
44851;DHT22;30583;48.714;9.386;2023-03-11T17:21:49;7.80;45.40
44851;DHT22;30583;48.714;9.386;2023-03-11T17:24:14;7.70;45.50
44851;DHT22;30583;48.714;9.386;2023-03-11T17:26:40;7.70;45.10
44851;DHT22;30583;48.714;9.386;2023-03-11T17:29:06;7.40;45.40
44851;DHT22;30583;48.714;9.386;2023-03-11T17:31:31;7.40;45.40
44851;DHT22;30583;48.714;9.386;2023-03-11T17:33:57;7.40;45.30